N51CP KDEN-KLBF
Flight info
| Callsign | N51CP |
|---|---|
| Flight time | 0h 44m |
| Altitude | 27000 |
| Route | PLAIN2 AKO MUYDO |
| Aircraft | TBM9/L-SDFGRWY/S |
Departure
| Time | 2026-05-06 20:23 |
|---|---|
| Airport | Denver International Airport (KDEN) |
Arrival
| Time | 2026-05-06 21:08 |
|---|---|
| Airport | North Platte Regional Airport Lee Bird Field (KLBF) |
| Time | Latitude | Longitude | Altitude | Speed | Heading |
|---|---|---|---|---|---|
| 2026-05-06 20:12 | 39.83937 | -104.66518 | 5409 ft | 0 kts | 360° |
| 2026-05-06 20:17 | 39.83963 | -104.66487 | 5410 ft | 10 kts | 86° |
| 2026-05-06 20:17 | 39.83986 | -104.66390 | 5413 ft | 13 kts | 54° |
| 2026-05-06 20:18 | 39.84007 | -104.66281 | 5416 ft | 14 kts | 123° |
| 2026-05-06 20:18 | 39.83890 | -104.66255 | 5418 ft | 21 kts | 179° |
| 2026-05-06 20:18 | 39.83743 | -104.66255 | 5420 ft | 24 kts | 181° |
| 2026-05-06 20:18 | 39.83574 | -104.66258 | 5421 ft | 24 kts | 181° |
| 2026-05-06 20:19 | 39.83419 | -104.66259 | 5425 ft | 21 kts | 180° |
| 2026-05-06 20:19 | 39.83264 | -104.66260 | 5427 ft | 25 kts | 182° |
| 2026-05-06 20:19 | 39.83091 | -104.66264 | 5430 ft | 24 kts | 180° |
| 2026-05-06 20:19 | 39.82944 | -104.66273 | 5418 ft | 15 kts | 188° |
| 2026-05-06 20:20 | 39.82854 | -104.66250 | 5431 ft | 13 kts | 128° |
| 2026-05-06 20:20 | 39.82844 | -104.66183 | 5434 ft | 0 kts | 86° |
| 2026-05-06 20:22 | 39.82844 | -104.66167 | 5435 ft | 10 kts | 90° |
| 2026-05-06 20:22 | 39.82888 | -104.66056 | 5436 ft | 17 kts | 5° |
| 2026-05-06 20:23 | 39.83148 | -104.66049 | 5432 ft | 62 kts | 1° |
| 2026-05-06 20:23 | 39.83722 | -104.66045 | 5511 ft | 95 kts | 355° |
| 2026-05-06 20:23 | 39.84408 | -104.66068 | 5764 ft | 101 kts | 22° |
| 2026-05-06 20:23 | 39.84741 | -104.65348 | 6153 ft | 95 kts | 76° |
| 2026-05-06 20:24 | 39.84943 | -104.64531 | 6521 ft | 98 kts | 71° |
| 2026-05-06 20:24 | 39.85151 | -104.63635 | 6777 ft | 109 kts | 74° |
| 2026-05-06 20:24 | 39.85355 | -104.62650 | 7021 ft | 120 kts | 75° |
| 2026-05-06 20:24 | 39.85590 | -104.61538 | 7280 ft | 132 kts | 75° |
| 2026-05-06 20:25 | 39.85844 | -104.60345 | 7538 ft | 144 kts | 75° |
| 2026-05-06 20:25 | 39.86125 | -104.59035 | 7798 ft | 156 kts | 75° |
| 2026-05-06 20:25 | 39.86429 | -104.57621 | 8053 ft | 167 kts | 75° |
| 2026-05-06 20:25 | 39.86751 | -104.56122 | 8316 ft | 176 kts | 75° |
| 2026-05-06 20:26 | 39.87089 | -104.54554 | 8564 ft | 184 kts | 75° |
| 2026-05-06 20:26 | 39.87440 | -104.52920 | 8813 ft | 190 kts | 75° |
| 2026-05-06 20:26 | 39.87796 | -104.51259 | 9057 ft | 195 kts | 75° |
| 2026-05-06 20:26 | 39.88168 | -104.49523 | 9304 ft | 199 kts | 75° |
| 2026-05-06 20:27 | 39.88540 | -104.47788 | 9546 ft | 203 kts | 75° |
| 2026-05-06 20:27 | 39.88922 | -104.46004 | 9792 ft | 205 kts | 75° |
| 2026-05-06 20:27 | 39.89310 | -104.44194 | 10038 ft | 207 kts | 75° |
| 2026-05-06 20:27 | 39.89696 | -104.42391 | 10261 ft | 209 kts | 75° |
| 2026-05-06 20:28 | 39.90087 | -104.40559 | 10489 ft | 209 kts | 75° |
| 2026-05-06 20:28 | 39.90482 | -104.38719 | 10762 ft | 213 kts | 74° |
| 2026-05-06 20:28 | 39.90880 | -104.36861 | 11120 ft | 213 kts | 74° |
| 2026-05-06 20:28 | 39.91279 | -104.34987 | 11470 ft | 214 kts | 74° |
| 2026-05-06 20:29 | 39.91673 | -104.33134 | 11800 ft | 216 kts | 73° |
| 2026-05-06 20:29 | 39.92076 | -104.31244 | 12136 ft | 217 kts | 73° |
| 2026-05-06 20:29 | 39.92481 | -104.29339 | 12482 ft | 219 kts | 73° |
| 2026-05-06 20:29 | 39.92891 | -104.27411 | 12828 ft | 220 kts | 73° |
| 2026-05-06 20:30 | 39.93301 | -104.25477 | 13159 ft | 222 kts | 73° |
| 2026-05-06 20:30 | 39.94125 | -104.21589 | 13820 ft | 225 kts | 72° |
| 2026-05-06 20:30 | 39.94546 | -104.19605 | 14118 ft | 228 kts | 72° |
| 2026-05-06 20:31 | 39.94971 | -104.17596 | 14395 ft | 230 kts | 72° |
| 2026-05-06 20:31 | 39.95398 | -104.15572 | 14674 ft | 233 kts | 72° |
| 2026-05-06 20:31 | 39.95829 | -104.13535 | 14939 ft | 235 kts | 72° |
| 2026-05-06 20:31 | 39.96260 | -104.11488 | 15204 ft | 237 kts | 72° |
| 2026-05-06 20:32 | 39.96700 | -104.09403 | 15479 ft | 240 kts | 72° |
| 2026-05-06 20:32 | 39.97144 | -104.07293 | 15752 ft | 242 kts | 72° |
| 2026-05-06 20:32 | 39.97595 | -104.05151 | 16033 ft | 245 kts | 72° |
| 2026-05-06 20:32 | 39.98042 | -104.03022 | 16303 ft | 247 kts | 72° |
| 2026-05-06 20:33 | 39.98499 | -104.00848 | 16571 ft | 249 kts | 72° |
| 2026-05-06 20:33 | 39.98960 | -103.98650 | 16842 ft | 251 kts | 72° |
| 2026-05-06 20:33 | 39.99424 | -103.96434 | 17119 ft | 254 kts | 72° |
| 2026-05-06 20:33 | 39.99886 | -103.94225 | 17380 ft | 256 kts | 72° |
| 2026-05-06 20:34 | 40.00357 | -103.91972 | 17648 ft | 258 kts | 72° |
| 2026-05-06 20:34 | 40.00832 | -103.89698 | 17914 ft | 260 kts | 72° |
| 2026-05-06 20:34 | 40.01312 | -103.87400 | 18178 ft | 263 kts | 72° |
| 2026-05-06 20:34 | 40.01787 | -103.85115 | 18454 ft | 265 kts | 72° |
| 2026-05-06 20:35 | 40.02274 | -103.82775 | 18683 ft | 267 kts | 72° |
| 2026-05-06 20:35 | 40.02762 | -103.80427 | 18927 ft | 268 kts | 72° |
| 2026-05-06 20:35 | 40.03246 | -103.78093 | 19165 ft | 269 kts | 72° |
| 2026-05-06 20:35 | 40.03738 | -103.75725 | 19408 ft | 270 kts | 72° |
| 2026-05-06 20:36 | 40.04231 | -103.73348 | 19651 ft | 272 kts | 72° |
| 2026-05-06 20:36 | 40.04726 | -103.70956 | 19896 ft | 273 kts | 72° |
| 2026-05-06 20:36 | 40.05221 | -103.68556 | 20134 ft | 274 kts | 72° |
| 2026-05-06 20:36 | 40.05719 | -103.66143 | 20179 ft | 283 kts | 72° |
| 2026-05-06 20:37 | 40.06240 | -103.63610 | 20189 ft | 292 kts | 73° |
| 2026-05-06 20:37 | 40.06774 | -103.61005 | 20197 ft | 299 kts | 73° |
| 2026-05-06 20:37 | 40.07316 | -103.58373 | 20199 ft | 305 kts | 73° |
| 2026-05-06 20:37 | 40.07870 | -103.55674 | 20196 ft | 309 kts | 73° |
| 2026-05-06 20:38 | 40.08429 | -103.52945 | 20191 ft | 312 kts | 73° |
| 2026-05-06 20:38 | 40.08992 | -103.50192 | 20193 ft | 314 kts | 73° |
| 2026-05-06 20:38 | 40.09554 | -103.47448 | 20189 ft | 317 kts | 73° |
| 2026-05-06 20:38 | 40.10128 | -103.44644 | 20189 ft | 319 kts | 73° |
| 2026-05-06 20:39 | 40.10703 | -103.41826 | 20188 ft | 320 kts | 73° |
| 2026-05-06 20:39 | 40.11276 | -103.39010 | 20294 ft | 317 kts | 73° |
| 2026-05-06 20:39 | 40.11834 | -103.36281 | 20485 ft | 312 kts | 73° |
| 2026-05-06 20:39 | 40.12391 | -103.33553 | 20681 ft | 308 kts | 73° |
| 2026-05-06 20:40 | 40.12940 | -103.30843 | 20878 ft | 306 kts | 73° |
| 2026-05-06 20:40 | 40.13299 | -103.29071 | 21011 ft | 304 kts | 73° |
| 2026-05-06 20:40 | 40.13841 | -103.26400 | 21210 ft | 303 kts | 73° |
| 2026-05-06 20:40 | 40.14554 | -103.22880 | 21484 ft | 301 kts | 73° |
| 2026-05-06 20:41 | 40.14916 | -103.21089 | 21625 ft | 300 kts | 73° |
| 2026-05-06 20:41 | 40.15443 | -103.18482 | 21834 ft | 299 kts | 72° |
| 2026-05-06 20:41 | 40.16202 | -103.15968 | 22033 ft | 296 kts | 63° |
| 2026-05-06 20:41 | 40.17036 | -103.13509 | 22249 ft | 295 kts | 63° |
| 2026-05-06 20:42 | 40.17841 | -103.11064 | 22483 ft | 295 kts | 64° |
| 2026-05-06 20:42 | 40.18657 | -103.08583 | 22696 ft | 296 kts | 64° |
| 2026-05-06 20:42 | 40.19476 | -103.06109 | 22909 ft | 296 kts | 64° |
| 2026-05-06 20:42 | 40.20301 | -103.03617 | 23129 ft | 297 kts | 64° |
| 2026-05-06 20:43 | 40.21112 | -103.01163 | 23344 ft | 297 kts | 64° |
| 2026-05-06 20:43 | 40.21937 | -102.98663 | 23567 ft | 298 kts | 64° |
| 2026-05-06 20:43 | 40.22759 | -102.96168 | 23782 ft | 299 kts | 64° |
| 2026-05-06 20:43 | 40.23584 | -102.93663 | 23970 ft | 299 kts | 64° |
| 2026-05-06 20:44 | 40.24398 | -102.91187 | 24153 ft | 299 kts | 64° |
| 2026-05-06 20:44 | 40.25221 | -102.88674 | 24345 ft | 299 kts | 63° |
| 2026-05-06 20:44 | 40.26051 | -102.86166 | 24537 ft | 299 kts | 63° |
| 2026-05-06 20:44 | 40.26866 | -102.83688 | 24726 ft | 299 kts | 64° |
| 2026-05-06 20:45 | 40.27688 | -102.81173 | 24916 ft | 299 kts | 64° |
| 2026-05-06 20:45 | 40.28514 | -102.78650 | 25119 ft | 301 kts | 63° |
| 2026-05-06 20:45 | 40.29347 | -102.76109 | 25316 ft | 305 kts | 64° |
| 2026-05-06 20:45 | 40.30179 | -102.73564 | 25510 ft | 308 kts | 64° |
| 2026-05-06 20:46 | 40.31026 | -102.70965 | 25710 ft | 310 kts | 64° |
| 2026-05-06 20:46 | 40.31879 | -102.68350 | 25911 ft | 312 kts | 64° |
| 2026-05-06 20:46 | 40.32727 | -102.65751 | 26112 ft | 314 kts | 64° |
| 2026-05-06 20:46 | 40.33586 | -102.63114 | 26315 ft | 315 kts | 64° |
| 2026-05-06 20:47 | 40.34449 | -102.60462 | 26518 ft | 316 kts | 64° |
| 2026-05-06 20:47 | 40.35312 | -102.57808 | 26724 ft | 317 kts | 64° |
| 2026-05-06 20:47 | 40.36167 | -102.55172 | 26927 ft | 317 kts | 64° |
| 2026-05-06 20:47 | 40.37036 | -102.52502 | 27136 ft | 318 kts | 64° |
| 2026-05-06 20:48 | 40.37912 | -102.49799 | 27165 ft | 325 kts | 64° |
| 2026-05-06 20:48 | 40.38801 | -102.47048 | 27166 ft | 331 kts | 64° |
| 2026-05-06 20:48 | 40.39709 | -102.44236 | 27170 ft | 336 kts | 64° |
| 2026-05-06 20:48 | 40.40618 | -102.41424 | 27177 ft | 340 kts | 64° |
| 2026-05-06 20:49 | 40.41553 | -102.38539 | 27177 ft | 344 kts | 64° |
| 2026-05-06 20:49 | 40.42482 | -102.35653 | 27165 ft | 347 kts | 64° |
| 2026-05-06 20:49 | 40.43424 | -102.32723 | 27167 ft | 350 kts | 64° |
| 2026-05-06 20:49 | 40.44378 | -102.29756 | 27171 ft | 352 kts | 64° |
| 2026-05-06 20:50 | 40.45326 | -102.26812 | 27165 ft | 354 kts | 64° |
| 2026-05-06 20:50 | 40.46288 | -102.23817 | 27166 ft | 355 kts | 65° |
| 2026-05-06 20:50 | 40.47251 | -102.20815 | 27167 ft | 356 kts | 65° |
| 2026-05-06 20:50 | 40.48214 | -102.17809 | 27164 ft | 357 kts | 65° |
| 2026-05-06 20:51 | 40.49169 | -102.14825 | 27173 ft | 358 kts | 64° |
| 2026-05-06 20:51 | 40.50131 | -102.11809 | 27164 ft | 357 kts | 64° |
| 2026-05-06 20:51 | 40.51095 | -102.08797 | 27164 ft | 357 kts | 64° |
| 2026-05-06 20:51 | 40.52056 | -102.05790 | 27134 ft | 357 kts | 64° |
| 2026-05-06 20:52 | 40.53026 | -102.02738 | 26756 ft | 363 kts | 64° |
| 2026-05-06 20:52 | 40.53994 | -101.99689 | 26284 ft | 365 kts | 64° |
| 2026-05-06 20:52 | 40.54978 | -101.96596 | 25803 ft | 367 kts | 64° |
| 2026-05-06 20:52 | 40.55956 | -101.93520 | 25318 ft | 368 kts | 64° |
| 2026-05-06 20:53 | 40.56947 | -101.90395 | 24845 ft | 370 kts | 65° |
| 2026-05-06 20:53 | 40.57944 | -101.87247 | 24382 ft | 371 kts | 65° |
| 2026-05-06 20:53 | 40.58939 | -101.84100 | 23886 ft | 373 kts | 65° |
| 2026-05-06 20:53 | 40.59925 | -101.80980 | 23355 ft | 374 kts | 65° |
| 2026-05-06 20:54 | 40.60927 | -101.77804 | 22850 ft | 373 kts | 65° |
| 2026-05-06 20:54 | 40.61910 | -101.74685 | 22364 ft | 372 kts | 65° |
| 2026-05-06 20:54 | 40.62900 | -101.71541 | 21874 ft | 372 kts | 65° |
| 2026-05-06 20:54 | 40.63891 | -101.68390 | 21382 ft | 371 kts | 65° |
| 2026-05-06 20:55 | 40.64883 | -101.65234 | 20888 ft | 372 kts | 65° |
| 2026-05-06 20:55 | 40.65871 | -101.62086 | 20401 ft | 370 kts | 65° |
| 2026-05-06 20:55 | 40.66836 | -101.59005 | 19922 ft | 359 kts | 64° |
| 2026-05-06 20:55 | 40.67777 | -101.56031 | 19466 ft | 352 kts | 64° |
| 2026-05-06 20:56 | 40.68709 | -101.53066 | 19008 ft | 346 kts | 65° |
| 2026-05-06 20:56 | 40.69616 | -101.50145 | 18553 ft | 342 kts | 65° |
| 2026-05-06 20:56 | 40.70518 | -101.47248 | 18076 ft | 338 kts | 65° |
| 2026-05-06 20:56 | 40.71394 | -101.44447 | 17636 ft | 333 kts | 65° |
| 2026-05-06 20:57 | 40.72271 | -101.41640 | 17200 ft | 328 kts | 65° |
| 2026-05-06 20:57 | 40.73130 | -101.38873 | 16777 ft | 325 kts | 65° |
| 2026-05-06 20:57 | 40.73985 | -101.36122 | 16345 ft | 321 kts | 65° |
| 2026-05-06 20:57 | 40.74829 | -101.33410 | 15923 ft | 317 kts | 65° |
| 2026-05-06 20:58 | 40.75651 | -101.30761 | 15519 ft | 314 kts | 65° |
| 2026-05-06 20:58 | 40.76476 | -101.28099 | 15104 ft | 311 kts | 65° |
| 2026-05-06 20:58 | 40.77293 | -101.25462 | 14695 ft | 308 kts | 65° |
| 2026-05-06 20:58 | 40.78099 | -101.22855 | 14287 ft | 305 kts | 66° |
| 2026-05-06 20:59 | 40.78892 | -101.20280 | 13745 ft | 305 kts | 66° |
| 2026-05-06 20:59 | 40.79690 | -101.17699 | 13317 ft | 301 kts | 66° |
| 2026-05-06 20:59 | 40.80480 | -101.15159 | 12923 ft | 296 kts | 66° |
| 2026-05-06 20:59 | 40.81246 | -101.12677 | 12539 ft | 293 kts | 66° |
| 2026-05-06 21:00 | 40.82015 | -101.10178 | 12153 ft | 292 kts | 66° |
| 2026-05-06 21:00 | 40.82777 | -101.07696 | 11771 ft | 290 kts | 66° |
| 2026-05-06 21:00 | 40.83532 | -101.05231 | 11390 ft | 289 kts | 66° |
| 2026-05-06 21:00 | 40.84276 | -101.02808 | 11016 ft | 287 kts | 66° |
| 2026-05-06 21:01 | 40.85026 | -101.00370 | 10639 ft | 286 kts | 67° |
| 2026-05-06 21:01 | 40.85771 | -100.97939 | 10265 ft | 284 kts | 67° |
| 2026-05-06 21:01 | 40.86510 | -100.95522 | 9870 ft | 283 kts | 67° |
| 2026-05-06 21:01 | 40.87246 | -100.93121 | 9490 ft | 280 kts | 67° |
| 2026-05-06 21:02 | 40.87975 | -100.90738 | 9121 ft | 278 kts | 67° |
| 2026-05-06 21:02 | 40.88690 | -100.88400 | 8747 ft | 276 kts | 67° |
| 2026-05-06 21:02 | 40.89407 | -100.86050 | 8398 ft | 275 kts | 68° |
| 2026-05-06 21:02 | 40.90120 | -100.83711 | 8038 ft | 273 kts | 68° |
| 2026-05-06 21:03 | 40.90830 | -100.81375 | 7674 ft | 272 kts | 68° |
| 2026-05-06 21:03 | 40.91537 | -100.79055 | 7318 ft | 272 kts | 68° |
| 2026-05-06 21:03 | 40.92244 | -100.76724 | 6954 ft | 272 kts | 68° |
| 2026-05-06 21:03 | 40.92971 | -100.74415 | 6588 ft | 270 kts | 63° |
| 2026-05-06 21:04 | 40.94042 | -100.72439 | 6220 ft | 267 kts | 45° |
| 2026-05-06 21:04 | 40.95466 | -100.70923 | 5986 ft | 252 kts | 29° |
| 2026-05-06 21:04 | 40.97013 | -100.70010 | 5793 ft | 239 kts | 14° |
| 2026-05-06 21:04 | 40.98636 | -100.69631 | 5487 ft | 234 kts | 1° |
| 2026-05-06 21:05 | 41.00236 | -100.69605 | 5197 ft | 233 kts | 359° |
| 2026-05-06 21:05 | 41.01852 | -100.69552 | 4892 ft | 228 kts | 360° |
| 2026-05-06 21:05 | 41.03376 | -100.69508 | 4594 ft | 206 kts | 358° |
| 2026-05-06 21:05 | 41.04754 | -100.69488 | 4316 ft | 192 kts | 357° |
| 2026-05-06 21:06 | 41.06038 | -100.69466 | 4046 ft | 182 kts | 359° |
| 2026-05-06 21:06 | 41.07222 | -100.69422 | 3827 ft | 146 kts | 357° |
| 2026-05-06 21:06 | 41.08160 | -100.69360 | 3632 ft | 128 kts | 2° |
| 2026-05-06 21:06 | 41.09015 | -100.69290 | 3559 ft | 119 kts | 353° |
| 2026-05-06 21:07 | 41.09838 | -100.69339 | 3400 ft | 118 kts | 350° |
| 2026-05-06 21:07 | 41.10675 | -100.69281 | 3155 ft | 123 kts | 353° |
| 2026-05-06 21:07 | 41.11524 | -100.69327 | 2975 ft | 121 kts | 357° |
| 2026-05-06 21:07 | 41.12337 | -100.69309 | 2802 ft | 112 kts | 359° |
| 2026-05-06 21:08 | 41.12946 | -100.69299 | 2776 ft | 45 kts | 0° |
| 2026-05-06 21:08 | 41.13102 | -100.69316 | 2777 ft | 15 kts | 302° |
| 2026-05-06 21:08 | 41.13110 | -100.69451 | 2776 ft | 15 kts | 266° |
| 2026-05-06 21:08 | 41.13145 | -100.69550 | 2776 ft | 13 kts | 359° |
| 2026-05-06 21:09 | 41.13168 | -100.69569 | 2776 ft | 0 kts | 155° |